sensor_id;sensor_type;location;lat;lon;timestamp;pressure;altitude;pressure_sealevel;temperature;humidity
81033;BME280;70514;52.478;6.102;2024-03-22T00:00:38;102123.22;;;13.99;81.49
81033;BME280;70514;52.478;6.102;2024-03-22T00:03:05;102121.38;;;13.91;81.83
81033;BME280;70514;52.478;6.102;2024-03-22T00:05:31;102121.53;;;14.01;81.83
81033;BME280;70514;52.478;6.102;2024-03-22T00:07:58;102115.41;;;13.95;81.46
81033;BME280;70514;52.478;6.102;2024-03-22T00:10:24;102117.69;;;13.75;82.42
81033;BME280;70514;52.478;6.102;2024-03-22T00:12:51;102099.78;;;13.90;81.52
81033;BME280;70514;52.478;6.102;2024-03-22T00:15:19;102093.47;;;13.73;82.55
81033;BME280;70514;52.478;6.102;2024-03-22T00:17:45;102092.66;;;13.76;82.32
81033;BME280;70514;52.478;6.102;2024-03-22T00:20:11;102084.25;;;13.90;81.46
81033;BME280;70514;52.478;6.102;2024-03-22T00:22:38;102082.63;;;13.43;83.59
81033;BME280;70514;52.478;6.102;2024-03-22T00:25:05;102080.41;;;13.64;82.30
81033;BME280;70514;52.478;6.102;2024-03-22T00:27:32;102083.09;;;13.70;82.62
81033;BME280;70514;52.478;6.102;2024-03-22T00:29:59;102090.25;;;13.86;82.02
81033;BME280;70514;52.478;6.102;2024-03-22T00:32:25;102088.03;;;14.12;80.68
81033;BME280;70514;52.478;6.102;2024-03-22T00:34:52;102081.84;;;14.02;81.04
81033;BME280;70514;52.478;6.102;2024-03-22T00:37:18;102071.69;;;14.18;80.04
81033;BME280;70514;52.478;6.102;2024-03-22T00:39:45;102068.25;;;14.19;80.29
81033;BME280;70514;52.478;6.102;2024-03-22T00:42:11;102064.88;;;14.26;80.00
81033;BME280;70514;52.478;6.102;2024-03-22T00:44:38;102066.44;;;14.12;80.41
81033;BME280;70514;52.478;6.102;2024-03-22T00:47:04;102058.03;;;14.31;79.36
81033;BME280;70514;52.478;6.102;2024-03-22T00:49:32;102059.53;;;14.12;79.80
81033;BME280;70514;52.478;6.102;2024-03-22T00:51:58;102055.91;;;13.99;80.53
81033;BME280;70514;52.478;6.102;2024-03-22T00:54:24;102035.03;;;13.87;81.39
81033;BME280;70514;52.478;6.102;2024-03-22T00:56:51;102031.44;;;13.78;81.27
81033;BME280;70514;52.478;6.102;2024-03-22T00:59:17;102027.81;;;13.68;82.20
81033;BME280;70514;52.478;6.102;2024-03-22T01:01:44;102025.34;;;13.73;81.29
81033;BME280;70514;52.478;6.102;2024-03-22T01:04:10;102022.59;;;13.62;82.96
81033;BME280;70514;52.478;6.102;2024-03-22T01:06:37;102015.22;;;13.91;81.51
81033;BME280;70514;52.478;6.102;2024-03-22T01:09:06;102010.97;;;13.96;81.35
81033;BME280;70514;52.478;6.102;2024-03-22T01:11:33;102008.34;;;13.94;81.25
81033;BME280;70514;52.478;6.102;2024-03-22T01:14:01;102011.69;;;13.86;81.43
81033;BME280;70514;52.478;6.102;2024-03-22T01:16:27;102012.59;;;13.88;81.45
81033;BME280;70514;52.478;6.102;2024-03-22T01:18:54;102020.59;;;14.06;80.44
81033;BME280;70514;52.478;6.102;2024-03-22T01:21:20;102021.28;;;13.94;81.06
81033;BME280;70514;52.478;6.102;2024-03-22T01:23:52;102018.66;;;13.88;81.33
81033;BME280;70514;52.478;6.102;2024-03-22T01:26:18;102014.16;;;13.78;81.65
81033;BME280;70514;52.478;6.102;2024-03-22T01:28:46;102000.94;;;13.58;82.88
81033;BME280;70514;52.478;6.102;2024-03-22T01:31:12;102004.63;;;13.73;81.59
81033;BME280;70514;52.478;6.102;2024-03-22T01:33:39;101994.03;;;13.56;82.69
81033;BME280;70514;52.478;6.102;2024-03-22T01:36:05;101994.50;;;13.91;81.05
81033;BME280;70514;52.478;6.102;2024-03-22T01:38:32;101992.66;;;13.84;80.87
81033;BME280;70514;52.478;6.102;2024-03-22T01:40:58;101997.13;;;13.94;81.30
81033;BME280;70514;52.478;6.102;2024-03-22T01:43:25;101990.72;;;13.66;82.11
81033;BME280;70514;52.478;6.102;2024-03-22T01:45:52;101985.00;;;13.91;81.12
81033;BME280;70514;52.478;6.102;2024-03-22T01:48:18;101980.81;;;14.01;80.46
81033;BME280;70514;52.478;6.102;2024-03-22T01:50:45;101973.19;;;14.12;80.19
81033;BME280;70514;52.478;6.102;2024-03-22T01:53:11;101980.16;;;14.17;79.79
81033;BME280;70514;52.478;6.102;2024-03-22T01:55:38;101975.00;;;14.20;79.36
81033;BME280;70514;52.478;6.102;2024-03-22T01:58:05;101964.50;;;14.10;80.18
81033;BME280;70514;52.478;6.102;2024-03-22T02:00:32;101978.34;;;14.10;80.19
81033;BME280;70514;52.478;6.102;2024-03-22T02:02:59;101976.78;;;14.23;79.10
81033;BME280;70514;52.478;6.102;2024-03-22T02:05:25;101975.56;;;13.93;80.51
81033;BME280;70514;52.478;6.102;2024-03-22T02:07:52;101968.34;;;13.71;81.39
81033;BME280;70514;52.478;6.102;2024-03-22T02:10:19;101967.00;;;14.00;79.96
81033;BME280;70514;52.478;6.102;2024-03-22T02:12:45;101969.59;;;14.00;79.99
81033;BME280;70514;52.478;6.102;2024-03-22T02:15:12;101966.84;;;13.87;80.92
81033;BME280;70514;52.478;6.102;2024-03-22T02:17:38;101962.47;;;13.84;80.85
81033;BME280;70514;52.478;6.102;2024-03-22T02:20:05;101959.34;;;14.10;79.98
81033;BME280;70514;52.478;6.102;2024-03-22T02:22:32;101956.59;;;13.96;80.54
81033;BME280;70514;52.478;6.102;2024-03-22T02:24:58;101952.16;;;13.86;81.23
81033;BME280;70514;52.478;6.102;2024-03-22T02:27:25;101960.88;;;13.94;80.62
81033;BME280;70514;52.478;6.102;2024-03-22T02:29:52;101957.47;;;13.99;80.63
81033;BME280;70514;52.478;6.102;2024-03-22T02:32:18;101949.94;;;14.18;79.58
81033;BME280;70514;52.478;6.102;2024-03-22T02:34:45;101941.13;;;14.02;80.66
81033;BME280;70514;52.478;6.102;2024-03-22T02:37:11;101931.06;;;14.31;79.41
81033;BME280;70514;52.478;6.102;2024-03-22T02:39:38;101928.34;;;14.17;79.33
81033;BME280;70514;52.478;6.102;2024-03-22T02:42:04;101930.78;;;14.03;80.10
81033;BME280;70514;52.478;6.102;2024-03-22T02:44:31;101924.75;;;14.06;79.53
81033;BME280;70514;52.478;6.102;2024-03-22T02:46:57;101920.31;;;13.94;80.24
81033;BME280;70514;52.478;6.102;2024-03-22T02:49:25;101923.72;;;13.90;80.05
81033;BME280;70514;52.478;6.102;2024-03-22T02:51:51;101920.13;;;13.78;81.40
81033;BME280;70514;52.478;6.102;2024-03-22T02:54:18;101920.16;;;13.84;80.75
81033;BME280;70514;52.478;6.102;2024-03-22T02:56:44;101905.63;;;13.92;80.47
81033;BME280;70514;52.478;6.102;2024-03-22T02:59:11;101897.75;;;13.83;81.11
81033;BME280;70514;52.478;6.102;2024-03-22T03:01:37;101888.38;;;13.92;80.77
81033;BME280;70514;52.478;6.102;2024-03-22T03:04:04;101880.78;;;14.09;80.28
81033;BME280;70514;52.478;6.102;2024-03-22T03:06:31;101875.50;;;14.01;80.15
81033;BME280;70514;52.478;6.102;2024-03-22T03:08:58;101872.72;;;13.85;80.84
81033;BME280;70514;52.478;6.102;2024-03-22T03:11:24;101864.47;;;14.21;79.58
81033;BME280;70514;52.478;6.102;2024-03-22T03:13:51;101852.44;;;14.24;79.25
81033;BME280;70514;52.478;6.102;2024-03-22T03:16:17;101847.00;;;14.00;80.11
81033;BME280;70514;52.478;6.102;2024-03-22T03:18:43;101845.56;;;14.28;78.85
81033;BME280;70514;52.478;6.102;2024-03-22T03:21:10;101839.28;;;14.04;79.82
81033;BME280;70514;52.478;6.102;2024-03-22T03:23:36;101837.50;;;13.99;80.00
81033;BME280;70514;52.478;6.102;2024-03-22T03:26:03;101819.44;;;14.07;79.91
81033;BME280;70514;52.478;6.102;2024-03-22T03:28:29;101826.06;;;13.80;80.84
81033;BME280;70514;52.478;6.102;2024-03-22T03:30:56;101819.97;;;13.75;80.94
81033;BME280;70514;52.478;6.102;2024-03-22T03:33:22;101812.19;;;13.74;81.45
81033;BME280;70514;52.478;6.102;2024-03-22T03:35:49;101826.06;;;13.80;81.46
81033;BME280;70514;52.478;6.102;2024-03-22T03:38:15;101828.75;;;13.89;81.06
81033;BME280;70514;52.478;6.102;2024-03-22T03:40:42;101825.34;;;13.92;81.10
81033;BME280;70514;52.478;6.102;2024-03-22T03:43:08;101808.28;;;14.12;79.48
81033;BME280;70514;52.478;6.102;2024-03-22T03:45:38;101819.44;;;14.03;80.20
81033;BME280;70514;52.478;6.102;2024-03-22T03:48:05;101797.94;;;14.14;79.96
81033;BME280;70514;52.478;6.102;2024-03-22T03:50:32;101810.72;;;13.97;81.08
81033;BME280;70514;52.478;6.102;2024-03-22T03:52:58;101808.97;;;13.96;79.96
81033;BME280;70514;52.478;6.102;2024-03-22T03:55:26;101802.09;;;13.99;80.15
81033;BME280;70514;52.478;6.102;2024-03-22T03:57:52;101803.03;;;14.06;79.51
81033;BME280;70514;52.478;6.102;2024-03-22T04:00:19;101804.53;;;13.84;80.72
81033;BME280;70514;52.478;6.102;2024-03-22T04:02:46;101798.53;;;13.85;80.53
81033;BME280;70514;52.478;6.102;2024-03-22T04:05:14;101801.88;;;13.75;80.68
81033;BME280;70514;52.478;6.102;2024-03-22T04:07:41;101803.66;;;13.81;80.77
81033;BME280;70514;52.478;6.102;2024-03-22T04:10:08;101796.69;;;13.78;81.08
81033;BME280;70514;52.478;6.102;2024-03-22T04:12:35;101802.09;;;13.96;80.37
81033;BME280;70514;52.478;6.102;2024-03-22T04:15:01;101802.00;;;13.87;81.07
81033;BME280;70514;52.478;6.102;2024-03-22T04:17:28;101794.25;;;13.87;80.44
81033;BME280;70514;52.478;6.102;2024-03-22T04:19:54;101801.94;;;13.81;81.22
81033;BME280;70514;52.478;6.102;2024-03-22T04:22:21;101807.75;;;13.63;82.57
81033;BME280;70514;52.478;6.102;2024-03-22T04:24:47;101806.28;;;13.85;80.85
81033;BME280;70514;52.478;6.102;2024-03-22T04:27:14;101807.72;;;13.59;82.90
81033;BME280;70514;52.478;6.102;2024-03-22T04:29:40;101785.41;;;13.70;82.12
81033;BME280;70514;52.478;6.102;2024-03-22T04:32:07;101785.56;;;13.82;80.99
81033;BME280;70514;52.478;6.102;2024-03-22T04:34:33;101784.81;;;13.95;80.47
81033;BME280;70514;52.478;6.102;2024-03-22T04:37:00;101796.63;;;13.71;81.10
81033;BME280;70514;52.478;6.102;2024-03-22T04:39:26;101798.38;;;13.73;81.71
81033;BME280;70514;52.478;6.102;2024-03-22T04:41:52;101799.31;;;13.80;80.89
81033;BME280;70514;52.478;6.102;2024-03-22T04:44:19;101796.91;;;13.21;84.18
81033;BME280;70514;52.478;6.102;2024-03-22T04:46:45;101795.78;;;13.72;81.85
81033;BME280;70514;52.478;6.102;2024-03-22T04:49:12;101793.03;;;13.58;82.43
81033;BME280;70514;52.478;6.102;2024-03-22T04:51:38;101792.44;;;13.82;80.98
81033;BME280;70514;52.478;6.102;2024-03-22T04:54:05;101794.34;;;13.23;83.93
81033;BME280;70514;52.478;6.102;2024-03-22T04:56:31;101800.97;;;13.73;81.66
81033;BME280;70514;52.478;6.102;2024-03-22T04:58:58;101789.59;;;13.56;82.56
81033;BME280;70514;52.478;6.102;2024-03-22T05:01:24;101796.81;;;13.87;81.33
81033;BME280;70514;52.478;6.102;2024-03-22T05:03:51;101793.16;;;13.67;81.99
81033;BME280;70514;52.478;6.102;2024-03-22T05:06:18;101789.44;;;13.44;82.81
81033;BME280;70514;52.478;6.102;2024-03-22T05:08:45;101784.72;;;13.86;81.13
81033;BME280;70514;52.478;6.102;2024-03-22T05:11:11;101789.00;;;13.83;81.15
81033;BME280;70514;52.478;6.102;2024-03-22T05:13:38;101789.88;;;13.83;80.62
81033;BME280;70514;52.478;6.102;2024-03-22T05:16:06;101776.00;;;13.77;81.03
81033;BME280;70514;52.478;6.102;2024-03-22T05:18:33;101779.50;;;13.82;80.48
81033;BME280;70514;52.478;6.102;2024-03-22T05:20:59;101779.16;;;13.50;82.52
81033;BME280;70514;52.478;6.102;2024-03-22T05:23:26;101775.03;;;13.67;81.41
81033;BME280;70514;52.478;6.102;2024-03-22T05:25:52;101776.16;;;13.95;80.64
81033;BME280;70514;52.478;6.102;2024-03-22T05:28:19;101777.00;;;13.91;80.55
81033;BME280;70514;52.478;6.102;2024-03-22T05:30:46;101773.72;;;14.07;79.90
81033;BME280;70514;52.478;6.102;2024-03-22T05:33:12;101773.72;;;14.10;79.77
81033;BME280;70514;52.478;6.102;2024-03-22T05:35:39;101764.28;;;14.17;79.35
81033;BME280;70514;52.478;6.102;2024-03-22T05:38:06;101760.97;;;14.30;78.77
81033;BME280;70514;52.478;6.102;2024-03-22T05:40:33;101765.84;;;13.98;79.67
81033;BME280;70514;52.478;6.102;2024-03-22T05:43:03;101758.19;;;14.12;79.68
81033;BME280;70514;52.478;6.102;2024-03-22T05:45:30;101765.84;;;13.99;79.73
81033;BME280;70514;52.478;6.102;2024-03-22T05:47:56;101756.31;;;13.95;79.77
81033;BME280;70514;52.478;6.102;2024-03-22T05:50:23;101763.19;;;13.90;79.92
81033;BME280;70514;52.478;6.102;2024-03-22T05:52:49;101755.09;;;13.58;81.28
81033;BME280;70514;52.478;6.102;2024-03-22T05:55:16;101760.59;;;13.90;80.36
81033;BME280;70514;52.478;6.102;2024-03-22T05:57:42;101759.63;;;13.79;80.56
81033;BME280;70514;52.478;6.102;2024-03-22T06:00:09;101754.28;;;13.63;80.85
81033;BME280;70514;52.478;6.102;2024-03-22T06:02:36;101757.69;;;13.60;81.49
81033;BME280;70514;52.478;6.102;2024-03-22T06:05:03;101742.03;;;13.46;82.08
81033;BME280;70514;52.478;6.102;2024-03-22T06:07:29;101746.44;;;13.58;81.86
81033;BME280;70514;52.478;6.102;2024-03-22T06:09:56;101743.31;;;13.86;80.87
81033;BME280;70514;52.478;6.102;2024-03-22T06:12:23;101742.53;;;13.96;79.96
81033;BME280;70514;52.478;6.102;2024-03-22T06:14:49;101740.75;;;13.94;80.65
81033;BME280;70514;52.478;6.102;2024-03-22T06:17:18;101753.38;;;13.59;82.05
81033;BME280;70514;52.478;6.102;2024-03-22T06:19:44;101748.25;;;13.65;81.62
81033;BME280;70514;52.478;6.102;2024-03-22T06:22:10;101742.06;;;13.52;81.87
81033;BME280;70514;52.478;6.102;2024-03-22T06:24:37;101750.84;;;13.62;81.07
81033;BME280;70514;52.478;6.102;2024-03-22T06:27:03;101746.50;;;13.61;81.52
81033;BME280;70514;52.478;6.102;2024-03-22T06:29:30;101748.81;;;13.35;81.84
81033;BME280;70514;52.478;6.102;2024-03-22T06:31:56;101742.78;;;13.38;82.44
81033;BME280;70514;52.478;6.102;2024-03-22T06:34:23;101744.50;;;13.36;82.63
81033;BME280;70514;52.478;6.102;2024-03-22T06:36:49;101749.84;;;13.52;82.03
81033;BME280;70514;52.478;6.102;2024-03-22T06:39:17;101755.41;;;12.52;86.31
81033;BME280;70514;52.478;6.102;2024-03-22T06:41:44;101748.50;;;13.12;84.95
81033;BME280;70514;52.478;6.102;2024-03-22T06:44:11;101752.19;;;12.68;87.41
81033;BME280;70514;52.478;6.102;2024-03-22T06:46:39;101756.44;;;13.25;84.07
81033;BME280;70514;52.478;6.102;2024-03-22T06:49:05;101750.38;;;13.21;83.97
81033;BME280;70514;52.478;6.102;2024-03-22T06:51:32;101742.47;;;12.52;88.07
81033;BME280;70514;52.478;6.102;2024-03-22T06:53:58;101750.38;;;13.23;84.69
81033;BME280;70514;52.478;6.102;2024-03-22T06:56:25;101741.38;;;12.95;86.22
81033;BME280;70514;52.478;6.102;2024-03-22T06:58:52;101744.00;;;13.01;85.55
81033;BME280;70514;52.478;6.102;2024-03-22T07:01:18;101741.97;;;13.40;84.23
81033;BME280;70514;52.478;6.102;2024-03-22T07:03:46;101735.56;;;13.88;81.94
81033;BME280;70514;52.478;6.102;2024-03-22T07:06:14;101728.88;;;14.16;80.57
81033;BME280;70514;52.478;6.102;2024-03-22T07:08:40;101720.91;;;13.94;80.69
81033;BME280;70514;52.478;6.102;2024-03-22T07:11:07;101733.78;;;13.85;81.36
81033;BME280;70514;52.478;6.102;2024-03-22T07:13:34;101732.59;;;13.53;82.28
81033;BME280;70514;52.478;6.102;2024-03-22T07:16:01;101727.09;;;13.21;84.32
81033;BME280;70514;52.478;6.102;2024-03-22T07:18:28;101716.34;;;12.92;84.70
81033;BME280;70514;52.478;6.102;2024-03-22T07:20:54;101723.84;;;13.40;83.74
81033;BME280;70514;52.478;6.102;2024-03-22T07:23:21;101715.66;;;13.85;81.18
81033;BME280;70514;52.478;6.102;2024-03-22T07:25:47;101710.56;;;13.91;79.80
81033;BME280;70514;52.478;6.102;2024-03-22T07:28:14;101710.75;;;13.27;82.90
81033;BME280;70514;52.478;6.102;2024-03-22T07:30:42;101717.13;;;12.87;86.20
81033;BME280;70514;52.478;6.102;2024-03-22T07:33:10;101706.41;;;13.21;84.97
81033;BME280;70514;52.478;6.102;2024-03-22T07:35:37;101706.84;;;13.62;81.98
81033;BME280;70514;52.478;6.102;2024-03-22T07:38:03;101714.28;;;12.67;86.11
81033;BME280;70514;52.478;6.102;2024-03-22T07:40:30;101717.69;;;12.66;86.37
81033;BME280;70514;52.478;6.102;2024-03-22T07:42:57;101709.25;;;13.45;82.56
81033;BME280;70514;52.478;6.102;2024-03-22T07:45:25;101713.38;;;13.30;84.24
81033;BME280;70514;52.478;6.102;2024-03-22T07:47:51;101713.06;;;13.05;85.39
81033;BME280;70514;52.478;6.102;2024-03-22T07:50:18;101712.22;;;13.08;84.82
81033;BME280;70514;52.478;6.102;2024-03-22T07:52:44;101706.50;;;12.65;85.51
81033;BME280;70514;52.478;6.102;2024-03-22T07:55:11;101710.72;;;13.24;83.91
81033;BME280;70514;52.478;6.102;2024-03-22T07:57:38;101706.31;;;13.16;84.54
81033;BME280;70514;52.478;6.102;2024-03-22T08:00:04;101702.25;;;13.38;82.86
81033;BME280;70514;52.478;6.102;2024-03-22T08:02:31;101711.56;;;13.23;82.88
81033;BME280;70514;52.478;6.102;2024-03-22T08:04:58;101713.38;;;13.30;83.92
81033;BME280;70514;52.478;6.102;2024-03-22T08:07:24;101702.38;;;13.49;83.22
81033;BME280;70514;52.478;6.102;2024-03-22T08:09:51;101704.91;;;13.41;82.91
81033;BME280;70514;52.478;6.102;2024-03-22T08:12:17;101705.88;;;12.83;84.86
81033;BME280;70514;52.478;6.102;2024-03-22T08:14:46;101712.78;;;13.55;83.66
81033;BME280;70514;52.478;6.102;2024-03-22T08:17:13;101706.44;;;14.18;79.87
81033;BME280;70514;52.478;6.102;2024-03-22T08:19:41;101702.41;;;14.50;78.43
81033;BME280;70514;52.478;6.102;2024-03-22T08:22:07;101717.78;;;14.33;79.16
81033;BME280;70514;52.478;6.102;2024-03-22T08:24:34;101729.78;;;13.30;83.25
81033;BME280;70514;52.478;6.102;2024-03-22T08:27:00;101726.97;;;13.13;84.64
81033;BME280;70514;52.478;6.102;2024-03-22T08:29:26;101725.84;;;13.66;82.55
81033;BME280;70514;52.478;6.102;2024-03-22T08:31:53;101725.34;;;14.03;80.06
81033;BME280;70514;52.478;6.102;2024-03-22T08:34:20;101732.38;;;13.33;83.22
81033;BME280;70514;52.478;6.102;2024-03-22T08:36:47;101731.03;;;12.96;84.84
81033;BME280;70514;52.478;6.102;2024-03-22T08:39:13;101723.56;;;13.16;83.41
81033;BME280;70514;52.478;6.102;2024-03-22T08:41:41;101716.84;;;12.65;87.35
81033;BME280;70514;52.478;6.102;2024-03-22T08:44:08;101725.94;;;12.41;89.41
81033;BME280;70514;52.478;6.102;2024-03-22T08:46:34;101714.25;;;12.64;88.42
81033;BME280;70514;52.478;6.102;2024-03-22T08:49:02;101715.75;;;13.11;86.46
81033;BME280;70514;52.478;6.102;2024-03-22T08:51:29;101712.78;;;13.52;83.58
81033;BME280;70514;52.478;6.102;2024-03-22T08:53:56;101717.41;;;12.45;89.69
81033;BME280;70514;52.478;6.102;2024-03-22T08:56:23;101710.63;;;12.51;90.17
81033;BME280;70514;52.478;6.102;2024-03-22T08:58:49;101705.78;;;12.74;88.31
81033;BME280;70514;52.478;6.102;2024-03-22T09:01:16;101714.56;;;12.88;88.27
81033;BME280;70514;52.478;6.102;2024-03-22T09:03:43;101721.03;;;13.22;86.26
81033;BME280;70514;52.478;6.102;2024-03-22T09:06:12;101721.66;;;13.06;86.92
81033;BME280;70514;52.478;6.102;2024-03-22T09:08:39;101715.91;;;13.27;85.91
81033;BME280;70514;52.478;6.102;2024-03-22T09:11:05;101708.13;;;13.21;86.32
81033;BME280;70514;52.478;6.102;2024-03-22T09:13:32;101721.22;;;13.36;84.74
81033;BME280;70514;52.478;6.102;2024-03-22T09:16:00;101720.25;;;12.64;89.00
81033;BME280;70514;52.478;6.102;2024-03-22T09:18:27;101714.09;;;12.55;89.89
81033;BME280;70514;52.478;6.102;2024-03-22T09:20:53;101710.28;;;12.92;87.53
81033;BME280;70514;52.478;6.102;2024-03-22T09:23:20;101718.19;;;12.41;90.94
81033;BME280;70514;52.478;6.102;2024-03-22T09:25:46;101714.50;;;12.85;88.13
81033;BME280;70514;52.478;6.102;2024-03-22T09:28:13;101713.25;;;13.19;86.44
81033;BME280;70514;52.478;6.102;2024-03-22T09:30:40;101713.22;;;13.17;86.13
81033;BME280;70514;52.478;6.102;2024-03-22T09:33:06;101723.72;;;13.30;86.44
81033;BME280;70514;52.478;6.102;2024-03-22T09:35:36;101719.97;;;12.45;91.29
81033;BME280;70514;52.478;6.102;2024-03-22T09:38:02;101715.94;;;13.25;87.09
81033;BME280;70514;52.478;6.102;2024-03-22T09:40:29;101717.13;;;12.87;89.81
81033;BME280;70514;52.478;6.102;2024-03-22T09:42:57;101711.94;;;12.85;89.29
81033;BME280;70514;52.478;6.102;2024-03-22T09:45:24;101707.94;;;13.08;87.60
81033;BME280;70514;52.478;6.102;2024-03-22T09:47:51;101707.38;;;13.34;85.72
81033;BME280;70514;52.478;6.102;2024-03-22T09:50:19;101708.13;;;13.24;87.18
81033;BME280;70514;52.478;6.102;2024-03-22T09:52:45;101706.50;;;13.33;86.49
81033;BME280;70514;52.478;6.102;2024-03-22T09:55:12;101711.19;;;12.32;92.75
81033;BME280;70514;52.478;6.102;2024-03-22T09:57:39;101706.00;;;12.30;94.32
81033;BME280;70514;52.478;6.102;2024-03-22T10:00:07;101703.53;;;12.38;94.71
81033;BME280;70514;52.478;6.102;2024-03-22T10:02:34;101697.00;;;12.64;91.93
81033;BME280;70514;52.478;6.102;2024-03-22T10:05:01;101705.91;;;12.86;90.23
81033;BME280;70514;52.478;6.102;2024-03-22T10:07:30;101703.16;;;12.72;92.32
81033;BME280;70514;52.478;6.102;2024-03-22T10:10:00;101700.09;;;12.38;94.07
81033;BME280;70514;52.478;6.102;2024-03-22T10:12:26;101697.78;;;13.21;89.01
81033;BME280;70514;52.478;6.102;2024-03-22T10:14:53;101693.09;;;13.71;84.73
81033;BME280;70514;52.478;6.102;2024-03-22T10:17:19;101704.81;;;13.34;86.32
81033;BME280;70514;52.478;6.102;2024-03-22T10:19:48;101699.28;;;13.83;83.53
81033;BME280;70514;52.478;6.102;2024-03-22T10:22:15;101708.31;;;13.39;86.73
81033;BME280;70514;52.478;6.102;2024-03-22T10:24:42;101699.47;;;12.54;92.38
81033;BME280;70514;52.478;6.102;2024-03-22T10:27:10;101687.50;;;12.62;91.30
81033;BME280;70514;52.478;6.102;2024-03-22T10:29:37;101693.94;;;12.31;95.58
81033;BME280;70514;52.478;6.102;2024-03-22T10:32:03;101694.22;;;11.93;97.79
81033;BME280;70514;52.478;6.102;2024-03-22T10:34:30;101696.00;;;12.53;92.68
81033;BME280;70514;52.478;6.102;2024-03-22T10:36:57;101689.81;;;13.05;88.92
81033;BME280;70514;52.478;6.102;2024-03-22T10:39:26;101687.00;;;12.27;97.03
81033;BME280;70514;52.478;6.102;2024-03-22T10:41:52;101682.16;;;12.48;93.76
81033;BME280;70514;52.478;6.102;2024-03-22T10:44:19;101682.56;;;11.67;100.00
81033;BME280;70514;52.478;6.102;2024-03-22T10:46:46;101688.72;;;11.74;100.00
81033;BME280;70514;52.478;6.102;2024-03-22T10:49:15;101685.00;;;12.09;100.00
81033;BME280;70514;52.478;6.102;2024-03-22T10:51:42;101684.56;;;13.01;92.89
81033;BME280;70514;52.478;6.102;2024-03-22T10:54:10;101691.44;;;12.35;97.34
81033;BME280;70514;52.478;6.102;2024-03-22T10:56:39;101687.25;;;12.42;96.54
81033;BME280;70514;52.478;6.102;2024-03-22T10:59:06;101686.63;;;12.03;99.50
81033;BME280;70514;52.478;6.102;2024-03-22T11:01:33;101684.59;;;12.39;98.03
81033;BME280;70514;52.478;6.102;2024-03-22T11:04:05;101686.81;;;12.75;94.78
81033;BME280;70514;52.478;6.102;2024-03-22T11:06:36;101679.13;;;12.78;94.36
81033;BME280;70514;52.478;6.102;2024-03-22T11:09:03;101675.84;;;12.93;93.51
81033;BME280;70514;52.478;6.102;2024-03-22T11:11:34;101674.25;;;13.04;93.87
81033;BME280;70514;52.478;6.102;2024-03-22T11:14:03;101672.91;;;12.65;95.10
81033;BME280;70514;52.478;6.102;2024-03-22T11:16:30;101664.41;;;12.14;100.00
81033;BME280;70514;52.478;6.102;2024-03-22T11:18:56;101669.97;;;12.38;99.36
81033;BME280;70514;52.478;6.102;2024-03-22T11:21:22;101656.66;;;12.72;96.89
81033;BME280;70514;52.478;6.102;2024-03-22T11:23:49;101663.22;;;12.49;99.47
81033;BME280;70514;52.478;6.102;2024-03-22T11:26:16;101655.75;;;13.41;91.11
81033;BME280;70514;52.478;6.102;2024-03-22T11:28:42;101657.41;;;13.35;92.54
81033;BME280;70514;52.478;6.102;2024-03-22T11:31:09;101645.44;;;13.46;90.93
81033;BME280;70514;52.478;6.102;2024-03-22T11:33:36;101650.69;;;13.58;90.60
81033;BME280;70514;52.478;6.102;2024-03-22T11:36:03;101652.69;;;13.83;88.60
81033;BME280;70514;52.478;6.102;2024-03-22T11:38:31;101652.59;;;12.94;96.19
81033;BME280;70514;52.478;6.102;2024-03-22T11:40:57;101644.75;;;13.68;87.73
81033;BME280;70514;52.478;6.102;2024-03-22T11:43:27;101649.72;;;13.44;89.90
81033;BME280;70514;52.478;6.102;2024-03-22T11:45:54;101652.66;;;13.82;87.69
81033;BME280;70514;52.478;6.102;2024-03-22T11:48:21;101660.50;;;13.06;93.65
81033;BME280;70514;52.478;6.102;2024-03-22T11:50:49;101647.31;;;12.85;93.40
81033;BME280;70514;52.478;6.102;2024-03-22T11:53:16;101646.09;;;12.56;97.16
81033;BME280;70514;52.478;6.102;2024-03-22T11:55:42;101642.84;;;12.72;97.17
81033;BME280;70514;52.478;6.102;2024-03-22T11:58:12;101651.41;;;12.68;95.31
81033;BME280;70514;52.478;6.102;2024-03-22T12:00:38;101638.09;;;13.07;92.67
81033;BME280;70514;52.478;6.102;2024-03-22T12:03:05;101638.63;;;12.78;94.81
81033;BME280;70514;52.478;6.102;2024-03-22T12:05:32;101634.59;;;13.00;93.43
81033;BME280;70514;52.478;6.102;2024-03-22T12:07:59;101625.59;;;13.46;90.26
81033;BME280;70514;52.478;6.102;2024-03-22T12:10:25;101625.19;;;13.08;93.15
81033;BME280;70514;52.478;6.102;2024-03-22T12:12:52;101627.84;;;13.13;93.18
81033;BME280;70514;52.478;6.102;2024-03-22T12:15:20;101617.59;;;13.21;93.10
81033;BME280;70514;52.478;6.102;2024-03-22T12:17:46;101635.94;;;12.71;97.64
81033;BME280;70514;52.478;6.102;2024-03-22T12:20:12;101626.75;;;12.94;94.40
81033;BME280;70514;52.478;6.102;2024-03-22T12:22:41;101629.56;;;12.45;98.48
81033;BME280;70514;52.478;6.102;2024-03-22T12:25:07;101621.66;;;12.34;99.14
81033;BME280;70514;52.478;6.102;2024-03-22T12:27:36;101616.09;;;12.70;96.02
81033;BME280;70514;52.478;6.102;2024-03-22T12:30:02;101610.19;;;12.12;100.00
81033;BME280;70514;52.478;6.102;2024-03-22T12:32:28;101614.66;;;12.24;99.31
81033;BME280;70514;52.478;6.102;2024-03-22T12:34:55;101603.00;;;12.53;96.49
81033;BME280;70514;52.478;6.102;2024-03-22T12:37:22;101602.94;;;13.19;92.29
81033;BME280;70514;52.478;6.102;2024-03-22T12:39:49;101610.06;;;12.68;97.43
81033;BME280;70514;52.478;6.102;2024-03-22T12:42:16;101614.91;;;12.44;97.40
81033;BME280;70514;52.478;6.102;2024-03-22T12:44:43;101604.63;;;12.47;98.68
81033;BME280;70514;52.478;6.102;2024-03-22T12:47:10;101603.88;;;12.54;97.56